createdAt,value
2018-01-30T00:00:25.230Z,17.30
2018-01-30T00:02:52.283Z,16.90
2018-01-30T00:05:19.390Z,17.10
2018-01-30T00:07:45.750Z,17.40
2018-01-30T00:10:12.081Z,17.10
2018-01-30T00:12:38.458Z,17.00
2018-01-30T00:15:05.615Z,17.00
2018-01-30T00:17:32.701Z,16.90
2018-01-30T00:19:59.071Z,17.00
2018-01-30T00:22:26.985Z,17.00
2018-01-30T00:24:53.447Z,17.00
2018-01-30T00:27:19.911Z,16.90
2018-01-30T00:29:46.308Z,16.90
2018-01-30T00:32:12.679Z,17.00
2018-01-30T00:34:39.014Z,17.00
2018-01-30T00:37:05.390Z,17.00
2018-01-30T00:39:32.500Z,16.80
2018-01-30T00:41:58.876Z,17.00
2018-01-30T00:44:25.207Z,17.00
2018-01-30T00:46:51.567Z,17.00
2018-01-30T00:49:18.633Z,16.90
2018-01-30T00:51:45.021Z,17.10
2018-01-30T00:54:11.378Z,17.30
2018-01-30T00:56:37.716Z,17.10
2018-01-30T00:59:04.114Z,17.20
2018-01-30T01:01:30.484Z,17.00
2018-01-30T01:03:56.847Z,16.90
2018-01-30T01:06:23.220Z,16.90
2018-01-30T01:08:49.596Z,16.90
2018-01-30T01:11:15.928Z,17.00
2018-01-30T01:13:42.384Z,17.00
2018-01-30T01:16:09.569Z,16.90
2018-01-30T01:18:35.954Z,16.90
2018-01-30T01:21:03.822Z,16.90
2018-01-30T01:23:30.228Z,16.60
2018-01-30T01:25:56.585Z,16.90
2018-01-30T01:28:22.995Z,16.50
2018-01-30T01:30:49.371Z,16.70
2018-01-30T01:33:15.788Z,17.00
2018-01-30T01:35:42.108Z,16.60
2018-01-30T01:38:08.495Z,16.50
2018-01-30T01:40:34.889Z,16.60
2018-01-30T01:43:01.220Z,16.30
2018-01-30T01:45:27.574Z,16.70
2018-01-30T01:47:53.930Z,16.50
2018-01-30T01:50:20.326Z,16.50
2018-01-30T01:52:46.696Z,16.40
2018-01-30T01:55:13.067Z,16.70
2018-01-30T01:57:40.149Z,16.50
2018-01-30T02:00:06.544Z,16.60
2018-01-30T02:02:32.937Z,16.50
2018-01-30T02:04:59.315Z,16.50
2018-01-30T02:07:25.682Z,16.60
2018-01-30T02:09:52.776Z,16.40
2018-01-30T02:12:19.147Z,16.40
2018-01-30T02:14:45.531Z,16.40
2018-01-30T02:17:11.904Z,16.70
2018-01-30T02:19:38.324Z,16.50
2018-01-30T02:22:04.704Z,16.20
2018-01-30T02:24:31.054Z,16.50
2018-01-30T02:26:58.169Z,16.40
2018-01-30T02:29:24.537Z,16.60
2018-01-30T02:31:50.921Z,16.50
2018-01-30T02:34:17.266Z,16.50
2018-01-30T02:36:43.656Z,16.30
2018-01-30T02:39:10.760Z,16.60
2018-01-30T02:41:37.118Z,16.50
2018-01-30T02:44:04.211Z,16.40
2018-01-30T02:46:30.592Z,16.60
2018-01-30T02:48:56.996Z,16.40
2018-01-30T02:51:23.421Z,16.50
2018-01-30T02:53:50.526Z,16.60
2018-01-30T02:56:16.868Z,16.40
2018-01-30T02:58:43.252Z,16.20
2018-01-30T03:01:10.377Z,16.20
2018-01-30T03:03:37.480Z,16.40
2018-01-30T03:06:03.842Z,16.50
2018-01-30T03:08:30.217Z,16.30
2018-01-30T03:10:57.303Z,16.20
2018-01-30T03:13:23.658Z,16.20
2018-01-30T03:15:50.024Z,16.40
2018-01-30T03:18:16.359Z,16.50
2018-01-30T03:20:42.735Z,16.00
2018-01-30T03:23:09.852Z,16.40
2018-01-30T03:25:37.708Z,16.40
2018-01-30T03:28:04.071Z,16.50
2018-01-30T03:30:30.441Z,16.00
2018-01-30T03:32:56.808Z,15.90
2018-01-30T03:35:23.148Z,16.10
2018-01-30T03:37:49.531Z,16.10
2018-01-30T03:40:16.658Z,15.80
2018-01-30T03:42:42.977Z,15.80
2018-01-30T03:45:09.296Z,16.10
2018-01-30T03:47:35.675Z,15.80
2018-01-30T03:50:02.063Z,16.20
2018-01-30T03:52:28.419Z,16.10
2018-01-30T03:54:54.795Z,15.80
2018-01-30T03:57:21.160Z,16.10
2018-01-30T03:59:47.536Z,15.90
2018-01-30T04:02:13.912Z,16.10
2018-01-30T04:04:40.279Z,15.80
2018-01-30T04:07:06.629Z,16.10
2018-01-30T04:09:33.007Z,16.00
2018-01-30T04:11:59.383Z,15.90
2018-01-30T04:14:25.747Z,16.00
2018-01-30T04:16:52.116Z,15.90
2018-01-30T04:19:18.480Z,16.00
2018-01-30T04:21:45.581Z,15.90
2018-01-30T04:24:11.983Z,16.10
2018-01-30T04:26:39.097Z,16.00
2018-01-30T04:29:05.491Z,16.00
2018-01-30T04:31:31.880Z,16.00
2018-01-30T04:33:58.994Z,16.00
2018-01-30T04:36:25.383Z,16.10
2018-01-30T04:38:51.761Z,16.00
2018-01-30T04:41:18.161Z,16.00
2018-01-30T04:43:45.266Z,15.90
2018-01-30T04:46:11.641Z,15.90
2018-01-30T04:48:38.027Z,16.10
2018-01-30T04:51:04.377Z,16.00
2018-01-30T04:53:30.758Z,15.90
2018-01-30T04:55:57.079Z,16.00
2018-01-30T04:58:24.198Z,15.90
2018-01-30T05:00:50.560Z,16.00
2018-01-30T05:03:16.920Z,15.90
2018-01-30T05:05:43.303Z,16.00
2018-01-30T05:08:09.677Z,16.00
2018-01-30T05:10:36.092Z,15.90
2018-01-30T05:13:02.480Z,16.10
2018-01-30T05:15:29.599Z,15.90
2018-01-30T05:17:55.975Z,15.90
2018-01-30T05:20:23.125Z,16.90
2018-01-30T05:22:49.439Z,16.90
2018-01-30T05:25:15.877Z,17.30
2018-01-30T05:27:42.274Z,17.50
2018-01-30T05:30:08.638Z,17.90
2018-01-30T05:32:35.015Z,18.10
2018-01-30T05:35:02.119Z,18.50
2018-01-30T05:37:28.483Z,18.90
2018-01-30T05:39:55.816Z,18.60
2018-01-30T05:42:22.152Z,19.10
2018-01-30T05:44:48.532Z,19.50
2018-01-30T05:47:15.608Z,19.80
2018-01-30T05:49:41.985Z,19.90
2018-01-30T05:52:08.371Z,19.90
2018-01-30T05:54:35.442Z,20.10
2018-01-30T05:57:01.888Z,19.90
2018-01-30T05:59:28.313Z,20.40
2018-01-30T06:01:54.747Z,20.50
2018-01-30T06:04:21.102Z,20.60
2018-01-30T06:06:47.488Z,20.60
2018-01-30T06:09:13.890Z,20.30
2018-01-30T06:11:40.354Z,20.60
2018-01-30T06:14:06.732Z,20.50
2018-01-30T06:16:33.865Z,20.60
2018-01-30T06:19:00.271Z,20.50
2018-01-30T06:21:26.655Z,20.50
2018-01-30T06:23:53.773Z,20.20
2018-01-30T06:26:20.111Z,20.50
2018-01-30T06:28:46.487Z,20.10
2018-01-30T06:31:13.618Z,20.10
2018-01-30T06:33:39.975Z,19.90
2018-01-30T06:36:07.074Z,20.20
2018-01-30T06:38:33.431Z,20.00
2018-01-30T06:40:59.845Z,20.10
2018-01-30T06:43:26.224Z,20.20
2018-01-30T06:45:52.588Z,20.00
2018-01-30T06:48:19.749Z,19.90
2018-01-30T06:50:46.152Z,19.80
2018-01-30T06:53:12.576Z,19.90
2018-01-30T06:55:38.943Z,19.40
2018-01-30T06:58:06.035Z,19.80
2018-01-30T07:00:32.412Z,19.90
2018-01-30T07:02:58.744Z,19.30
2018-01-30T07:05:25.147Z,19.50
2018-01-30T07:07:51.530Z,19.50
2018-01-30T07:10:17.952Z,19.40
2018-01-30T07:12:44.959Z,19.40
2018-01-30T07:15:11.301Z,19.00
2018-01-30T07:17:37.658Z,18.80
2018-01-30T07:20:04.084Z,18.50
2018-01-30T07:22:30.468Z,18.10
2018-01-30T07:24:56.851Z,18.00
2018-01-30T07:27:23.275Z,18.40
2018-01-30T07:29:50.351Z,18.00
2018-01-30T07:32:16.745Z,18.00
2018-01-30T07:34:43.115Z,18.00
2018-01-30T07:37:09.486Z,17.40
2018-01-30T07:39:35.872Z,17.50
2018-01-30T07:42:03.005Z,17.20
2018-01-30T07:44:29.384Z,17.50
2018-01-30T07:46:55.736Z,17.10
2018-01-30T07:49:22.057Z,17.00
2018-01-30T07:51:48.390Z,17.20
2018-01-30T07:54:14.764Z,16.90
2018-01-30T07:56:41.123Z,16.90
2018-01-30T07:59:07.473Z,16.90
2018-01-30T08:01:34.553Z,16.90
2018-01-30T08:04:00.956Z,16.90
2018-01-30T08:06:27.280Z,16.80
2018-01-30T08:08:55.147Z,16.90
2018-01-30T08:11:21.534Z,16.80
2018-01-30T08:13:47.848Z,16.60
2018-01-30T08:16:14.939Z,17.00
2018-01-30T08:18:41.301Z,16.40
2018-01-30T08:21:07.682Z,16.80
2018-01-30T08:23:34.764Z,16.40
2018-01-30T08:26:01.162Z,16.60
2018-01-30T08:28:28.251Z,16.30
2018-01-30T08:30:54.611Z,16.30
2018-01-30T08:33:20.956Z,16.50
2018-01-30T08:35:47.293Z,16.50
2018-01-30T08:38:13.649Z,16.40
2018-01-30T08:40:40.012Z,16.70
2018-01-30T08:43:07.096Z,16.50
2018-01-30T08:45:33.483Z,16.50
2018-01-30T08:47:59.835Z,16.60
2018-01-30T08:50:26.913Z,16.60
2018-01-30T08:52:53.284Z,16.40
2018-01-30T08:55:19.643Z,16.40
2018-01-30T08:57:45.983Z,16.40
2018-01-30T09:00:12.326Z,16.50
2018-01-30T09:02:38.671Z,16.50
2018-01-30T09:05:05.787Z,16.20
2018-01-30T09:07:32.124Z,16.40
2018-01-30T09:09:58.504Z,16.40
2018-01-30T09:12:25.591Z,16.50
2018-01-30T09:14:51.967Z,16.60
2018-01-30T09:17:18.365Z,16.40
2018-01-30T09:19:44.724Z,16.30
2018-01-30T09:22:11.085Z,16.70
2018-01-30T09:24:44.499Z,16.50
2018-01-30T09:27:11.631Z,16.20
2018-01-30T09:29:38.072Z,16.50
2018-01-30T09:32:04.408Z,16.50
2018-01-30T09:34:31.511Z,16.60
2018-01-30T09:36:57.905Z,16.40
2018-01-30T09:39:24.258Z,16.60
2018-01-30T09:41:51.368Z,16.40
2018-01-30T09:44:17.748Z,16.40
2018-01-30T09:46:44.875Z,16.50
2018-01-30T09:49:11.219Z,16.50
2018-01-30T09:51:37.668Z,16.50
2018-01-30T09:54:04.781Z,16.40
2018-01-30T09:56:31.140Z,16.50
2018-01-30T09:58:57.503Z,16.40
2018-01-30T10:01:24.648Z,16.30
2018-01-30T10:03:51.041Z,16.60
2018-01-30T10:06:17.415Z,16.50
2018-01-30T10:08:43.796Z,16.50
2018-01-30T10:11:10.144Z,16.70
2018-01-30T10:13:36.597Z,16.60
2018-01-30T10:16:02.990Z,16.60
2018-01-30T10:18:30.147Z,16.60
2018-01-30T10:20:57.228Z,16.90
2018-01-30T10:23:23.595Z,16.90
2018-01-30T10:25:49.964Z,17.00
2018-01-30T10:28:17.057Z,16.90
2018-01-30T10:30:43.396Z,16.90
2018-01-30T10:33:09.751Z,16.90
2018-01-30T10:35:36.103Z,16.90
2018-01-30T10:38:02.531Z,16.90
2018-01-30T10:40:28.871Z,17.00
2018-01-30T10:42:55.239Z,16.60
2018-01-30T10:45:22.336Z,16.60
2018-01-30T10:47:48.681Z,16.60
2018-01-30T10:50:15.038Z,16.90
2018-01-30T10:52:41.412Z,16.50
2018-01-30T10:55:08.488Z,16.90
2018-01-30T10:57:34.827Z,16.90
2018-01-30T11:00:01.225Z,16.80
2018-01-30T11:02:27.599Z,16.60
2018-01-30T11:04:53.939Z,16.30
2018-01-30T11:07:20.311Z,16.60
2018-01-30T11:09:46.653Z,16.60
2018-01-30T11:12:12.992Z,16.50
2018-01-30T11:14:39.340Z,16.50
2018-01-30T11:17:05.715Z,16.50
2018-01-30T11:19:32.799Z,16.50
2018-01-30T11:21:59.148Z,16.30
2018-01-30T11:24:25.495Z,16.50
2018-01-30T11:26:51.827Z,16.50
2018-01-30T11:29:18.182Z,16.50
2018-01-30T11:31:44.541Z,16.50
2018-01-30T11:34:11.632Z,16.40
2018-01-30T11:36:37.984Z,16.70
2018-01-30T11:39:04.369Z,16.90
2018-01-30T11:41:30.695Z,16.90
2018-01-30T11:43:57.796Z,16.90
2018-01-30T11:46:24.133Z,16.60
2018-01-30T11:48:50.484Z,16.90
2018-01-30T11:51:16.803Z,16.90
2018-01-30T11:53:43.163Z,16.90
2018-01-30T11:56:09.501Z,16.90
2018-01-30T11:58:35.839Z,16.90
2018-01-30T12:01:02.268Z,16.90
2018-01-30T12:03:28.634Z,16.90
2018-01-30T12:05:55.715Z,17.00
2018-01-30T12:08:22.095Z,17.00
2018-01-30T12:10:48.457Z,17.00
2018-01-30T12:13:14.816Z,16.60
2018-01-30T12:15:41.908Z,16.90
2018-01-30T12:18:08.243Z,17.00
2018-01-30T12:20:34.602Z,16.70
2018-01-30T12:23:00.934Z,16.90
2018-01-30T12:25:27.279Z,17.00
2018-01-30T12:27:53.635Z,17.00
2018-01-30T12:30:20.744Z,16.90
2018-01-30T12:32:47.088Z,16.90
2018-01-30T12:35:13.455Z,16.90
2018-01-30T12:37:39.782Z,16.90
2018-01-30T12:40:06.136Z,16.80
2018-01-30T12:42:33.224Z,16.90
2018-01-30T12:44:59.572Z,16.90
2018-01-30T12:47:25.938Z,17.00
2018-01-30T12:49:52.289Z,16.90
2018-01-30T12:52:18.656Z,17.00
2018-01-30T12:54:45.020Z,16.90
2018-01-30T12:57:11.380Z,16.90
2018-01-30T12:59:37.722Z,16.90
2018-01-30T13:02:04.087Z,17.00
2018-01-30T13:04:31.182Z,17.00
2018-01-30T13:06:57.533Z,16.80
2018-01-30T13:09:23.904Z,16.70
2018-01-30T13:11:50.243Z,16.50
2018-01-30T13:14:17.344Z,17.10
2018-01-30T13:16:43.720Z,16.90
2018-01-30T13:19:10.820Z,16.90
2018-01-30T13:21:37.226Z,16.90
2018-01-30T13:24:04.347Z,16.90
2018-01-30T13:26:30.722Z,17.00
2018-01-30T13:28:57.803Z,16.90
2018-01-30T13:31:24.161Z,16.90
2018-01-30T13:33:50.499Z,17.00
2018-01-30T13:36:16.868Z,17.00
2018-01-30T13:38:43.257Z,16.90
2018-01-30T13:41:09.655Z,16.90
2018-01-30T13:43:35.998Z,16.80
2018-01-30T13:46:03.129Z,16.80
2018-01-30T13:48:29.479Z,16.80
2018-01-30T13:50:55.829Z,16.40
2018-01-30T13:53:22.938Z,16.50
2018-01-30T13:55:49.279Z,16.60
2018-01-30T13:58:15.643Z,16.30
2018-01-30T14:00:41.987Z,16.50
2018-01-30T14:03:09.093Z,16.50
2018-01-30T14:05:35.424Z,16.50
2018-01-30T14:08:01.757Z,16.50
2018-01-30T14:10:28.130Z,16.40
2018-01-30T14:12:54.471Z,16.50
2018-01-30T14:15:20.811Z,16.30
2018-01-30T14:17:47.163Z,16.50
2018-01-30T14:20:14.248Z,16.30
2018-01-30T14:22:40.644Z,16.50
2018-01-30T14:25:07.026Z,16.50
2018-01-30T14:27:33.371Z,16.40
2018-01-30T14:29:59.720Z,16.30
2018-01-30T14:32:26.076Z,16.50
2018-01-30T14:34:52.431Z,16.50
2018-01-30T14:37:18.812Z,16.40
2018-01-30T14:39:45.141Z,16.40
2018-01-30T14:42:11.483Z,16.50
2018-01-30T14:44:37.859Z,16.50
2018-01-30T14:47:04.190Z,16.40
2018-01-30T14:49:30.577Z,16.40
2018-01-30T14:51:57.672Z,16.40
2018-01-30T14:54:24.103Z,16.40
2018-01-30T14:56:50.438Z,16.30
2018-01-30T14:59:16.815Z,16.40
2018-01-30T15:01:43.172Z,17.00
2018-01-30T15:04:10.284Z,17.00
2018-01-30T15:06:36.652Z,17.10
2018-01-30T15:09:03.817Z,17.00
2018-01-30T15:11:30.905Z,17.00
2018-01-30T15:13:57.272Z,17.00
2018-01-30T15:16:23.639Z,17.00
2018-01-30T15:18:50.815Z,17.00
2018-01-30T15:21:17.169Z,17.00
2018-01-30T15:23:43.528Z,16.90
2018-01-30T15:26:09.910Z,17.00
2018-01-30T15:28:37.063Z,16.90
2018-01-30T15:31:04.135Z,17.00
2018-01-30T15:33:30.504Z,16.90
2018-01-30T15:35:56.872Z,17.00
2018-01-30T15:38:23.282Z,16.90
2018-01-30T15:40:49.644Z,16.80
2018-01-30T15:43:16.060Z,16.30
2018-01-30T15:45:42.415Z,17.00
2018-01-30T15:48:08.801Z,17.30
2018-01-30T15:50:35.204Z,17.40
2018-01-30T15:53:01.568Z,17.90
2018-01-30T15:55:27.959Z,18.40
2018-01-30T15:57:54.360Z,19.40
2018-01-30T16:00:20.743Z,19.40
2018-01-30T16:02:47.093Z,20.00
2018-01-30T16:05:14.231Z,20.50
2018-01-30T16:07:40.612Z,20.40
2018-01-30T16:10:07.019Z,20.30
2018-01-30T16:12:34.167Z,20.60
2018-01-30T16:15:00.549Z,20.70
2018-01-30T16:17:26.983Z,21.10
2018-01-30T16:19:53.357Z,21.30
2018-01-30T16:22:19.713Z,21.30
2018-01-30T16:24:46.859Z,21.30
2018-01-30T16:27:13.288Z,21.20
2018-01-30T16:29:39.701Z,21.30
2018-01-30T16:32:06.089Z,21.20
2018-01-30T16:34:32.472Z,21.20
2018-01-30T16:36:58.898Z,21.20
2018-01-30T16:39:25.261Z,21.20
2018-01-30T16:41:51.669Z,21.10
2018-01-30T16:44:18.052Z,21.10
2018-01-30T16:52:19.742Z,20.50
2018-01-30T16:54:46.102Z,20.60
2018-01-30T16:57:13.192Z,20.70
2018-01-30T16:59:39.575Z,20.70
2018-01-30T17:02:05.930Z,20.60
2018-01-30T17:04:33.013Z,20.80
2018-01-30T17:06:59.390Z,20.50
2018-01-30T17:09:25.742Z,20.60
2018-01-30T17:11:52.889Z,20.70
2018-01-30T17:14:19.256Z,20.60
2018-01-30T17:16:46.346Z,20.60
2018-01-30T17:19:12.723Z,20.50
2018-01-30T17:21:39.115Z,20.70
2018-01-30T17:24:05.486Z,21.10
2018-01-30T17:26:31.835Z,21.00
2018-01-30T17:28:58.268Z,21.10
2018-01-30T17:31:24.689Z,21.10
2018-01-30T17:33:51.085Z,21.10
2018-01-30T17:36:18.155Z,21.20
2018-01-30T17:38:44.537Z,21.20
2018-01-30T17:41:10.944Z,21.30
2018-01-30T17:43:37.299Z,20.60
2018-01-30T17:46:03.749Z,20.60
2018-01-30T17:48:30.181Z,20.60
2018-01-30T17:50:56.608Z,20.50
2018-01-30T17:53:23.065Z,20.50
2018-01-30T17:55:49.461Z,20.10
2018-01-30T17:58:15.807Z,20.00
2018-01-30T18:00:42.256Z,20.00
2018-01-30T18:03:08.621Z,19.60
2018-01-30T18:05:34.982Z,19.40
2018-01-30T18:08:02.112Z,19.50
2018-01-30T18:10:28.465Z,19.10
2018-01-30T18:12:54.831Z,19.50
2018-01-30T18:15:21.303Z,19.90
2018-01-30T18:17:47.641Z,20.00
2018-01-30T18:20:14.015Z,19.90
2018-01-30T18:22:40.433Z,20.10
2018-01-30T18:25:06.784Z,20.00
2018-01-30T18:27:33.140Z,20.10
2018-01-30T18:30:00.249Z,20.10
2018-01-30T18:32:26.677Z,20.10
2018-01-30T18:34:53.020Z,20.00
2018-01-30T18:37:19.443Z,20.40
2018-01-30T18:39:45.847Z,20.50
2018-01-30T18:42:12.934Z,20.60
2018-01-30T18:44:39.336Z,20.30
2018-01-30T18:47:06.441Z,20.50
2018-01-30T18:49:32.791Z,20.40
2018-01-30T18:54:56.304Z,20.50
2018-01-30T18:57:31.302Z,20.40
2018-01-30T18:59:57.690Z,20.50
2018-01-30T19:02:24.036Z,20.70
2018-01-30T19:04:50.417Z,20.70
2018-01-30T19:07:16.827Z,20.60
2018-01-30T19:09:43.193Z,20.80
2018-01-30T19:12:09.588Z,21.20
2018-01-30T19:14:35.929Z,21.20
2018-01-30T19:17:02.284Z,21.10
2018-01-30T19:19:28.640Z,21.20
2018-01-30T19:21:55.029Z,21.20
2018-01-30T19:24:21.395Z,21.10
2018-01-30T19:26:47.777Z,21.10
2018-01-30T19:29:14.943Z,21.10
2018-01-30T19:31:42.023Z,21.10
2018-01-30T19:34:08.364Z,21.00
2018-01-30T19:36:34.816Z,20.50
2018-01-30T19:39:01.180Z,20.70
2018-01-30T19:41:27.519Z,20.50
2018-01-30T19:43:53.882Z,20.60
2018-01-30T19:46:21.122Z,20.60
2018-01-30T19:48:48.215Z,20.60
2018-01-30T19:51:14.587Z,20.40
2018-01-30T19:53:40.964Z,20.60
2018-01-30T19:56:08.060Z,20.60
2018-01-30T19:58:34.462Z,20.40
2018-01-30T20:01:01.533Z,20.50
2018-01-30T20:03:27.900Z,20.60
2018-01-30T20:05:54.916Z,20.80
2018-01-30T20:08:21.265Z,21.30
2018-01-30T20:10:47.603Z,21.20
2018-01-30T20:13:13.956Z,21.10
2018-01-30T20:15:40.291Z,21.10
2018-01-30T20:18:06.689Z,21.20
2018-01-30T20:20:33.796Z,21.10
2018-01-30T20:23:00.151Z,20.90
2018-01-30T20:25:26.508Z,20.90
2018-01-30T20:27:53.643Z,20.70
2018-01-30T20:30:19.986Z,20.60
2018-01-30T20:32:47.133Z,20.70
2018-01-30T20:35:13.537Z,20.60
2018-01-30T20:37:39.983Z,20.50
2018-01-30T20:42:41.492Z,20.60
2018-01-30T20:45:07.844Z,20.60
2018-01-30T20:47:34.934Z,20.60
2018-01-30T20:50:01.291Z,20.50
2018-01-30T20:52:27.699Z,20.60
2018-01-30T20:54:54.044Z,20.50
2018-01-30T20:57:20.436Z,20.50
2018-01-30T20:59:47.535Z,20.60
2018-01-30T21:02:13.907Z,20.50
2018-01-30T21:04:40.271Z,20.60
2018-01-30T21:07:07.358Z,20.70
2018-01-30T21:09:33.741Z,20.60
2018-01-30T21:12:00.084Z,20.80
2018-01-30T21:14:27.180Z,20.60
2018-01-30T21:16:53.563Z,20.60
2018-01-30T21:19:19.903Z,20.60
2018-01-30T21:21:46.315Z,20.60
2018-01-30T21:24:12.720Z,20.70
2018-01-30T21:26:39.097Z,20.50
2018-01-30T21:29:05.441Z,20.50
2018-01-30T21:31:31.844Z,20.40
2018-01-30T21:33:58.176Z,20.10
2018-01-30T21:36:24.548Z,19.90
2018-01-30T21:38:50.939Z,19.90
2018-01-30T21:41:17.308Z,19.50
2018-01-30T21:43:43.641Z,19.50
2018-01-30T21:46:10.036Z,19.20
2018-01-30T21:48:37.136Z,19.20
2018-01-30T21:51:03.535Z,19.40
2018-01-30T21:53:30.627Z,18.70
2018-01-30T21:55:56.993Z,18.60
2018-01-30T21:58:24.825Z,18.90
2018-01-30T22:00:51.205Z,18.70
2018-01-30T22:03:17.557Z,18.70
2018-01-30T22:05:44.680Z,18.40
2018-01-30T22:08:11.086Z,18.50
2018-01-30T22:10:37.496Z,18.10
2018-01-30T22:13:04.571Z,18.40
2018-01-30T22:15:30.919Z,18.30
2018-01-30T22:17:57.295Z,18.10
2018-01-30T22:20:23.631Z,18.00
2018-01-30T22:22:49.967Z,18.40
2018-01-30T22:25:16.323Z,18.30
2018-01-30T22:27:43.412Z,17.90
2018-01-30T22:30:09.763Z,17.80
2018-01-30T22:32:36.193Z,17.50
2018-01-30T22:35:02.594Z,17.60
2018-01-30T22:37:29.660Z,17.50
2018-01-30T22:39:56.063Z,17.50
2018-01-30T22:42:22.410Z,17.40
2018-01-30T22:44:48.800Z,17.40
